Aeroporto :
LOGIN :

Iscrizione | Disclaimer

   EN    FR    IT 

 










Sommario :    VFR   VFR Marginale   IFR   IFR Intensivo   IFR Molto Intensivo
Visibilità : 
Base nubi : 
>= 8 km
>= 3000ft
5 / 8 km
1000 / 3000 ft
1500m / 5 km
500 / 1000 ft
800 / 1500m
200 / 500 ft
< 800m
< 200 ft
Simboli :   Temporali  Nebbia  Neve Forte  Precipitazioni Forti  Vento > 20 kt
SIGMETs :   Varie  Temporali  Ghiacco  Turbolenza  Onda orograficha  Ceneri Vulcaniche






- Altitudine del aeroporto : 171 ft
- Codice IATA : EGC


LFBE - Bergerac

ULTIMO METAR :
  • 271030Z AUTO 27007KT 220V300 9999 SCT030 BKN046 OVC056 17/10 Q1014 TEMPO BKN030TCU

METARs OBSOLETI :
  • 271000Z AUTO 26007KT 220V310 9999 SCT026 BKN035 BKN042 16/10 Q1014 TEMPO BKN030TCU
  • 270930Z AUTO 30006KT 240V340 9999 SCT025 BKN054 16/09 Q1014 TEMPO BKN030TCU
  • 270900Z AUTO 28007KT 240V330 9999 FEW021 BKN056 15/10 Q1014 NOSIG
  • 270830Z AUTO 27006KT 240V300 9999 FEW043 OVC052 14/10 Q1013 NOSIG
  • 270800Z AUTO 28007KT CAVOK 14/11 Q1013 NOSIG

TAF TAF LFBE
Valido dal 27 a 06 ore il 28 a 06 ore UTC


270500Z 2706/2806 27010KT 9999 SCT040
PROB30
TEMPO 2711/2716 -SHRA BKN030TCU
BECMG 2719/2721 5000 -RA BKN015 OVC030
TEMPO 2721/2802 2000 DZ OVC008



MetMap, La meteo Aeronautica in un colpo d'occhio ! - Copyright ORBIFLY Dicembre 2007 - Disclaimer

ORBIFLY MET'MAP TEAM :

Programmazione e sviluppo : Alexandra Zaïnal
Concezione : Baudouin d'Aumeries
Supporto tecnico e logistico : Manuel Goepfert
Aiuto : Marc-Olivier Méhu
Aiuto per la traduzione : Arnaldo La Scala




FONTI E CREDITI :

   NOAA